Time;durP1;ratioP1;P1;durP2;ratioP2;P2;SDS_P1;SDS_P2;PMS_P1;PMS_P2;Temp;Humidity;BMP_temperature;BMP_pressure;BME280_temperature;BME280_humidity;BME280_pressure;Samples;Min_cycle;Max_cycle;Signal;HPM_P1;HPM_P2
2021/10/07 00:01:16;;;;;;;13.50;10.00;;;14.80;93.40;;;;;;4996504;28;20046;-63
2021/10/07 00:03:42;;;;;;;13.07;10.10;;;14.80;93.30;;;;;;5012660;28;20426;-63
2021/10/07 00:06:07;;;;;;;12.30;9.00;;;14.80;93.30;;;;;;5006770;28;20713;-65
2021/10/07 00:08:33;;;;;;;14.02;9.73;;;14.80;93.40;;;;;;4993861;28;20034;-66
2021/10/07 00:10:58;;;;;;;12.27;9.68;;;14.80;93.50;;;;;;5012639;28;20041;-63
2021/10/07 00:13:24;;;;;;;13.32;9.57;;;14.80;93.40;;;;;;4996477;28;20408;-63
2021/10/07 00:15:49;;;;;;;14.88;10.30;;;14.80;93.30;;;;;;5000942;28;20026;-63
2021/10/07 00:18:17;;;;;;;13.88;10.65;;;14.80;93.30;;;;;;5007221;28;20539;-63
2021/10/07 00:20:42;;;;;;;12.93;10.07;;;14.70;93.30;;;;;;5004868;28;20029;-64
2021/10/07 00:23:08;;;;;;;12.27;10.25;;;14.80;93.40;;;;;;4986567;28;20022;-66
2021/10/07 00:25:33;;;;;;;12.25;9.60;;;14.80;93.30;;;;;;5008757;28;20030;-63
2021/10/07 00:28:08;;;;;;;12.75;10.02;;;14.80;93.30;;;;;;5006695;28;20032;-63
2021/10/07 00:30:34;;;;;;;12.75;9.90;;;14.80;93.30;;;;;;5003566;28;20125;-63
2021/10/07 00:40:51;;;;;;;13.60;10.02;;;14.70;93.30;;;;;;5012233;28;20444;-63
2021/10/07 00:43:17;;;;;;;13.93;10.05;;;14.70;93.30;;;;;;5012124;28;20030;-62
2021/10/07 00:45:50;;;;;;;12.63;9.48;;;14.70;93.20;;;;;;5008599;28;20402;-63
2021/10/07 00:48:16;;;;;;;13.52;9.23;;;14.70;93.30;;;;;;4993461;28;20122;-65
2021/10/07 00:50:41;;;;;;;13.20;9.40;;;14.70;93.30;;;;;;5002764;28;20030;-64
2021/10/07 00:53:07;;;;;;;13.50;10.00;;;14.70;93.30;;;;;;4999562;28;20038;-63
2021/10/07 00:55:32;;;;;;;15.32;9.93;;;14.80;93.30;;;;;;5003425;28;20034;-63
2021/10/07 00:57:58;;;;;;;13.00;9.93;;;14.70;93.20;;;;;;5011666;28;20034;-63
2021/10/07 01:00:24;;;;;;;14.98;10.25;;;14.70;93.30;;;;;;5011847;28;20037;-65
2021/10/07 01:02:49;;;;;;;13.23;9.38;;;14.70;93.20;;;;;;5003644;28;20030;-62
2021/10/07 01:05:15;;;;;;;13.13;10.10;;;14.70;93.20;;;;;;4994742;28;20027;-63
2021/10/07 01:07:40;;;;;;;13.88;10.35;;;14.70;93.30;;;;;;5003307;28;20033;-63
2021/10/07 01:10:06;;;;;;;13.95;10.23;;;14.70;93.30;;;;;;4992329;28;20026;-64
2021/10/07 01:12:32;;;;;;;12.68;9.35;;;14.70;93.20;;;;;;5004357;28;20493;-63
2021/10/07 01:14:58;;;;;;;12.35;10.18;;;14.70;93.30;;;;;;4994585;28;20036;-63
2021/10/07 01:17:29;;;;;;;16.55;11.07;;;14.70;93.30;;;;;;5012116;28;20456;-63
2021/10/07 01:19:57;;;;;;;14.02;10.38;;;14.70;93.20;;;;;;5011686;28;20153;-64
2021/10/07 01:22:25;;;;;;;13.25;10.63;;;14.70;93.20;;;;;;5011997;28;20022;-64
2021/10/07 01:24:51;;;;;;;12.93;10.73;;;14.70;93.20;;;;;;4998246;28;20026;-62
2021/10/07 01:27:21;;;;;;;14.73;10.55;;;14.70;93.30;;;;;;4992301;28;20026;-62
2021/10/07 01:29:52;;;;;;;13.15;9.70;;;14.70;93.20;;;;;;4974431;28;20023;-62
2021/10/07 01:32:17;;;;;;;12.38;9.32;;;14.70;93.20;;;;;;5009963;28;20056;-64
2021/10/07 01:34:43;;;;;;;13.10;10.57;;;14.70;93.20;;;;;;5008227;28;20057;-62
2021/10/07 01:37:08;;;;;;;13.23;10.13;;;14.70;93.20;;;;;;4998045;28;20058;-64
2021/10/07 01:39:34;;;;;;;12.82;10.65;;;14.70;93.20;;;;;;4991546;28;20106;-65
2021/10/07 01:41:59;;;;;;;12.85;9.98;;;14.70;93.20;;;;;;4993262;28;20026;-64
2021/10/07 01:44:25;;;;;;;13.38;10.82;;;14.70;93.20;;;;;;4992001;28;20482;-64
2021/10/07 01:46:52;;;;;;;12.52;10.00;;;14.70;93.10;;;;;;5003984;28;20505;-64
2021/10/07 01:49:18;;;;;;;14.32;10.20;;;14.70;93.30;;;;;;4995730;28;20030;-62
2021/10/07 01:51:43;;;;;;;11.60;9.27;;;14.70;93.30;;;;;;4993077;28;20026;-62
2021/10/07 01:54:09;;;;;;;12.23;9.77;;;14.70;93.30;;;;;;4992015;28;20109;-63
2021/10/07 01:56:35;;;;;;;12.38;10.05;;;14.70;93.30;;;;;;4993953;28;20114;-63
2021/10/07 01:59:01;;;;;;;12.77;10.15;;;14.70;93.30;;;;;;4999826;28;20042;-64
2021/10/07 02:01:27;;;;;;;12.95;10.10;;;14.70;93.20;;;;;;5001553;28;20038;-62
2021/10/07 02:03:52;;;;;;;14.13;11.05;;;14.70;93.30;;;;;;4993030;28;20034;-62
2021/10/07 02:06:18;;;;;;;12.48;9.77;;;14.70;93.30;;;;;;5000925;28;20555;-62
2021/10/07 02:08:44;;;;;;;14.20;10.98;;;14.70;93.30;;;;;;4976561;28;20105;-65
2021/10/07 02:11:10;;;;;;;13.85;11.20;;;14.70;93.20;;;;;;4974158;28;20062;-63
2021/10/07 02:13:36;;;;;;;14.98;11.55;;;14.70;93.20;;;;;;4992633;28;20046;-62
2021/10/07 02:16:02;;;;;;;15.48;11.52;;;14.70;93.20;;;;;;4996614;28;20482;-62
2021/10/07 02:18:28;;;;;;;13.85;11.02;;;14.70;93.30;;;;;;5005827;28;20085;-62
2021/10/07 02:20:54;;;;;;;14.55;11.38;;;14.70;93.10;;;;;;4995494;28;20034;-64
2021/10/07 02:23:20;;;;;;;13.25;10.70;;;14.70;93.30;;;;;;4995023;28;20031;-62
2021/10/07 02:25:46;;;;;;;14.65;11.63;;;14.70;93.40;;;;;;4995558;28;20053;-62
2021/10/07 02:28:13;;;;;;;14.32;11.82;;;14.70;93.30;;;;;;5009186;28;20030;-62
2021/10/07 02:30:39;;;;;;;14.88;11.48;;;14.70;93.40;;;;;;5005741;28;20081;-63
2021/10/07 02:33:05;;;;;;;15.00;12.20;;;14.70;93.40;;;;;;5006001;28;20030;-63
2021/10/07 02:35:30;;;;;;;15.05;11.32;;;14.70;93.40;;;;;;4995253;28;20133;-63
2021/10/07 02:37:56;;;;;;;15.23;11.98;;;14.70;93.30;;;;;;5011916;28;20030;-63
2021/10/07 02:40:22;;;;;;;13.23;10.38;;;14.70;93.30;;;;;;5012488;28;20027;-62
2021/10/07 02:42:47;;;;;;;16.13;12.27;;;14.70;93.40;;;;;;5008878;28;20022;-63
2021/10/07 02:45:15;;;;;;;14.38;11.13;;;14.70;93.40;;;;;;4994742;28;20401;-63
2021/10/07 02:47:41;;;;;;;14.65;11.35;;;14.70;93.40;;;;;;5004909;28;20053;-62
2021/10/07 02:50:09;;;;;;;16.77;12.02;;;14.70;93.40;;;;;;5010872;28;20105;-62
2021/10/07 02:52:34;;;;;;;13.15;10.73;;;14.70;93.30;;;;;;5003485;28;20504;-62
2021/10/07 02:55:00;;;;;;;16.92;12.18;;;14.70;93.50;;;;;;5006339;28;20128;-63
2021/10/07 02:57:25;;;;;;;14.20;11.20;;;14.70;93.40;;;;;;5003105;28;20105;-64
2021/10/07 02:59:51;;;;;;;14.75;11.48;;;14.70;93.50;;;;;;4976784;28;20485;-61
2021/10/07 03:02:16;;;;;;;14.25;10.82;;;14.70;93.50;;;;;;5010712;28;20033;-63
2021/10/07 03:04:45;;;;;;;14.30;10.70;;;14.70;93.60;;;;;;5014183;28;20026;-62
2021/10/07 03:07:11;;;;;;;14.45;10.90;;;14.70;93.50;;;;;;5003862;28;20030;-64
2021/10/07 03:09:38;;;;;;;14.23;11.25;;;14.70;93.50;;;;;;5010254;28;20563;-62
2021/10/07 03:12:05;;;;;;;14.68;11.15;;;14.70;93.50;;;;;;5005772;28;20125;-65
2021/10/07 03:14:31;;;;;;;14.80;10.65;;;14.70;93.50;;;;;;4994407;28;20030;-61
2021/10/07 03:16:57;;;;;;;14.98;11.18;;;14.70;93.50;;;;;;5002982;28;20028;-63
2021/10/07 03:19:23;;;;;;;14.73;11.15;;;14.70;93.40;;;;;;5011699;28;20413;-63
2021/10/07 03:21:48;;;;;;;14.10;10.43;;;14.70;93.40;;;;;;5010100;28;20390;-64
2021/10/07 03:24:14;;;;;;;15.70;11.48;;;14.60;93.40;;;;;;4996140;28;20030;-62
2021/10/07 03:26:40;;;;;;;14.02;10.60;;;14.70;93.40;;;;;;5000314;28;20021;-61
2021/10/07 03:29:05;;;;;;;14.35;10.05;;;14.60;93.50;;;;;;5013650;28;20504;-63
2021/10/07 03:31:31;;;;;;;14.18;10.98;;;14.70;93.50;;;;;;4992112;28;20757;-62
2021/10/07 03:33:56;;;;;;;15.27;10.85;;;14.60;93.40;;;;;;4994105;28;20046;-61
2021/10/07 03:36:22;;;;;;;14.48;10.85;;;14.70;93.40;;;;;;5008203;28;20062;-63
2021/10/07 03:38:47;;;;;;;15.80;11.02;;;14.70;93.40;;;;;;4992654;28;20029;-62
2021/10/07 03:41:13;;;;;;;13.68;10.73;;;14.60;93.30;;;;;;5011954;28;20405;-63
2021/10/07 03:43:38;;;;;;;13.65;11.00;;;14.70;93.40;;;;;;4996044;28;20112;-62
2021/10/07 03:46:04;;;;;;;15.00;11.43;;;14.70;93.40;;;;;;4993846;28;20054;-63
2021/10/07 03:48:29;;;;;;;13.43;10.40;;;14.60;93.50;;;;;;4977462;28;20026;-65
2021/10/07 03:50:55;;;;;;;13.35;10.18;;;14.70;93.50;;;;;;4980391;28;20041;-62
2021/10/07 03:53:22;;;;;;;13.98;11.10;;;14.60;93.40;;;;;;5016072;28;20048;-62
2021/10/07 03:55:47;;;;;;;13.98;10.40;;;14.70;93.50;;;;;;5012786;28;20053;-62
2021/10/07 03:58:13;;;;;;;15.40;10.85;;;14.60;93.50;;;;;;5004428;28;20136;-62
2021/10/07 04:00:38;;;;;;;15.60;10.73;;;14.60;93.50;;;;;;5003100;28;20033;-63
2021/10/07 04:03:04;;;;;;;15.25;10.93;;;14.70;93.50;;;;;;5013491;28;20097;-62
2021/10/07 04:05:30;;;;;;;13.80;10.60;;;14.70;93.50;;;;;;5003661;28;20023;-65
2021/10/07 04:07:55;;;;;;;14.15;10.65;;;14.70;93.50;;;;;;4994589;28;20116;-62
2021/10/07 04:10:21;;;;;;;14.52;11.05;;;14.70;93.60;;;;;;4993349;28;20085;-63
2021/10/07 04:12:46;;;;;;;14.13;10.38;;;14.70;93.50;;;;;;5007485;28;20470;-61
2021/10/07 04:15:12;;;;;;;13.48;10.85;;;14.60;93.50;;;;;;5021124;28;20038;-62
2021/10/07 04:17:37;;;;;;;14.93;11.05;;;14.70;93.40;;;;;;5020772;28;20064;-62
2021/10/07 04:20:04;;;;;;;13.80;10.52;;;14.60;93.40;;;;;;5013506;28;20027;-63
2021/10/07 04:22:30;;;;;;;14.77;10.68;;;14.60;93.40;;;;;;4993111;28;20109;-61
2021/10/07 04:24:56;;;;;;;14.65;10.75;;;14.70;93.60;;;;;;4993478;28;20553;-63
2021/10/07 04:27:22;;;;;;;14.27;10.93;;;14.70;93.40;;;;;;4993154;28;20023;-63
2021/10/07 04:29:47;;;;;;;15.63;11.60;;;14.70;93.60;;;;;;4994116;28;20109;-63
2021/10/07 04:32:13;;;;;;;15.05;11.15;;;14.70;93.60;;;;;;5011161;28;20097;-61
2021/10/07 04:34:39;;;;;;;14.98;11.05;;;14.70;93.50;;;;;;4995205;28;20038;-62
2021/10/07 04:37:04;;;;;;;14.60;10.98;;;14.70;93.30;;;;;;5012318;28;20543;-63
2021/10/07 04:39:30;;;;;;;13.70;10.50;;;14.70;93.50;;;;;;5012414;28;20026;-64
2021/10/07 04:41:56;;;;;;;16.67;11.63;;;14.70;93.50;;;;;;5012664;28;20079;-62
2021/10/07 04:44:21;;;;;;;16.17;11.68;;;14.60;93.40;;;;;;5012728;28;20029;-63
2021/10/07 04:46:47;;;;;;;15.38;11.68;;;14.60;93.40;;;;;;4995183;28;20058;-63
2021/10/07 04:49:12;;;;;;;14.88;10.93;;;14.60;93.40;;;;;;4990890;28;20030;-65
2021/10/07 04:51:38;;;;;;;16.35;12.00;;;14.60;93.40;;;;;;4977218;28;20042;-62
2021/10/07 04:54:04;;;;;;;14.27;11.00;;;14.70;93.40;;;;;;5009014;28;20030;-63
2021/10/07 04:56:29;;;;;;;14.43;11.13;;;14.70;93.40;;;;;;5011225;28;20080;-63
2021/10/07 04:58:55;;;;;;;17.33;12.15;;;14.60;93.50;;;;;;5007334;28;20022;-64
2021/10/07 05:01:21;;;;;;;16.50;12.20;;;14.60;93.40;;;;;;5004299;28;20029;-63
2021/10/07 05:03:47;;;;;;;16.15;12.60;;;14.60;93.40;;;;;;5012111;28;20025;-65
2021/10/07 05:06:13;;;;;;;15.82;11.88;;;14.60;93.40;;;;;;5012433;28;20029;-66
2021/10/07 05:08:38;;;;;;;16.88;13.02;;;14.70;93.40;;;;;;5011919;28;20030;-64
2021/10/07 05:11:05;;;;;;;15.98;12.27;;;14.60;93.40;;;;;;5012236;28;20026;-64
2021/10/07 05:13:31;;;;;;;17.70;13.35;;;14.70;93.50;;;;;;5012161;28;20022;-61
2021/10/07 05:15:56;;;;;;;15.63;12.07;;;14.70;93.40;;;;;;5012204;28;20443;-63
2021/10/07 05:18:22;;;;;;;19.67;13.20;;;14.70;93.40;;;;;;5015248;28;20076;-63
2021/10/07 05:20:50;;;;;;;15.82;11.95;;;14.60;93.50;;;;;;5003930;28;20063;-64
2021/10/07 05:23:15;;;;;;;16.42;12.13;;;14.70;93.50;;;;;;5004643;28;20474;-64
2021/10/07 05:25:41;;;;;;;18.33;13.30;;;14.70;93.50;;;;;;5020442;28;20018;-63
2021/10/07 05:28:07;;;;;;;16.98;12.10;;;14.60;93.50;;;;;;5021874;28;20026;-63
2021/10/07 05:30:32;;;;;;;16.85;12.80;;;14.70;93.50;;;;;;5021600;28;20072;-63
2021/10/07 05:32:58;;;;;;;17.23;12.82;;;14.70;93.40;;;;;;5020461;28;20022;-66
2021/10/07 05:35:23;;;;;;;17.17;12.57;;;14.70;93.40;;;;;;5022008;28;20064;-63
2021/10/07 05:37:49;;;;;;;16.95;12.75;;;14.70;93.50;;;;;;5024819;28;20029;-64
2021/10/07 05:40:15;;;;;;;17.45;12.52;;;14.70;93.40;;;;;;5028308;28;20128;-63
2021/10/07 05:42:40;;;;;;;18.63;13.00;;;14.70;93.40;;;;;;5001244;28;20018;-64
2021/10/07 05:45:10;;;;;;;16.92;12.13;;;14.70;93.40;;;;;;5002984;28;20018;-64
2021/10/07 05:47:39;;;;;;;16.08;11.90;;;14.70;93.40;;;;;;5020685;28;20014;-63
2021/10/07 05:50:06;;;;;;;17.65;12.85;;;14.70;93.50;;;;;;5019683;28;20022;-64
2021/10/07 05:52:32;;;;;;;17.85;12.98;;;14.70;93.40;;;;;;5024119;28;20041;-64
2021/10/07 05:54:57;;;;;;;16.48;12.00;;;14.70;93.50;;;;;;5015014;28;20064;-65
2021/10/07 05:57:24;;;;;;;18.05;13.23;;;14.70;93.50;;;;;;5015458;28;20022;-64
2021/10/07 05:59:50;;;;;;;19.27;13.60;;;14.70;93.50;;;;;;5015695;28;20018;-63
2021/10/07 06:02:16;;;;;;;18.40;13.30;;;14.70;93.60;;;;;;5015828;28;20026;-64
2021/10/07 06:04:42;;;;;;;16.17;12.18;;;14.70;93.50;;;;;;5015649;28;20022;-64
2021/10/07 06:07:07;;;;;;;17.73;12.88;;;14.70;93.50;;;;;;5015657;28;20041;-63
2021/10/07 06:09:33;;;;;;;18.00;13.60;;;14.70;93.40;;;;;;4997760;28;20026;-63
2021/10/07 06:11:58;;;;;;;18.20;13.55;;;14.70;93.50;;;;;;5015614;28;20037;-64
2021/10/07 06:14:25;;;;;;;16.58;11.85;;;14.70;93.50;;;;;;5015501;28;20029;-65
2021/10/07 06:16:53;;;;;;;19.60;13.48;;;14.70;93.60;;;;;;5015595;28;20053;-64
2021/10/07 06:19:20;;;;;;;18.65;14.00;;;14.70;93.50;;;;;;5015049;28;20022;-63
2021/10/07 06:21:46;;;;;;;17.38;13.00;;;14.70;93.50;;;;;;5015286;28;20022;-63
2021/10/07 06:24:11;;;;;;;18.85;13.65;;;14.70;93.50;;;;;;5015440;28;20022;-64
2021/10/07 06:26:38;;;;;;;18.70;13.63;;;14.70;93.40;;;;;;4997772;28;20018;-64
2021/10/07 06:29:04;;;;;;;17.02;12.70;;;14.70;93.40;;;;;;5015095;28;20030;-63
2021/10/07 06:31:29;;;;;;;17.42;12.63;;;14.70;93.60;;;;;;5028699;28;20037;-64
2021/10/07 06:33:55;;;;;;;16.55;12.23;;;14.70;93.50;;;;;;5002743;28;20029;-65
2021/10/07 06:36:20;;;;;;;18.23;13.10;;;14.70;93.50;;;;;;5032568;28;20509;-63
2021/10/07 06:38:46;;;;;;;18.15;12.82;;;14.70;93.50;;;;;;5004856;28;20025;-63
2021/10/07 06:41:11;;;;;;;20.50;13.68;;;14.70;93.60;;;;;;5025821;28;20030;-64
2021/10/07 06:43:37;;;;;;;18.20;13.02;;;14.70;93.50;;;;;;5024841;28;20463;-63
2021/10/07 06:46:03;;;;;;;17.33;12.50;;;14.70;93.60;;;;;;5020233;28;20481;-63
2021/10/07 06:48:28;;;;;;;19.27;13.77;;;14.70;93.70;;;;;;5024691;28;20445;-63
2021/10/07 06:50:54;;;;;;;18.42;12.73;;;14.70;93.40;;;;;;5021450;28;20030;-64
2021/10/07 06:53:19;;;;;;;16.98;12.90;;;14.70;93.60;;;;;;5024767;28;20447;-65
2021/10/07 06:55:45;;;;;;;19.77;13.85;;;14.70;93.50;;;;;;5024775;28;20029;-63
2021/10/07 06:58:11;;;;;;;19.70;14.02;;;14.70;93.50;;;;;;5022801;28;20116;-67
2021/10/07 07:00:37;;;;;;;20.10;14.15;;;14.70;93.50;;;;;;4999191;28;20017;-65
2021/10/07 07:03:05;;;;;;;32.90;14.68;;;14.70;93.60;;;;;;5014331;28;20046;-63
2021/10/07 07:05:30;;;;;;;40.63;13.75;;;14.70;93.40;;;;;;5013785;28;20022;-66
2021/10/07 07:07:56;;;;;;;23.55;13.43;;;14.70;93.50;;;;;;5014633;28;20030;-62
2021/10/07 07:10:21;;;;;;;20.40;14.10;;;14.70;93.50;;;;;;5014275;28;20500;-63
2021/10/07 07:12:49;;;;;;;20.48;13.45;;;14.70;93.50;;;;;;4996829;28;20029;-64
2021/10/07 07:15:15;;;;;;;21.88;13.73;;;14.70;93.50;;;;;;5014335;28;20029;-66
2021/10/07 07:17:41;;;;;;;21.10;12.65;;;14.70;93.50;;;;;;5014328;28;20515;-64
2021/10/07 07:20:08;;;;;;;23.23;14.30;;;14.70;93.60;;;;;;5021841;28;20029;-65
2021/10/07 07:22:34;;;;;;;23.35;14.35;;;14.70;93.50;;;;;;5011789;28;20407;-62
2021/10/07 07:25:00;;;;;;;21.85;14.57;;;14.70;93.60;;;;;;5024762;28;20049;-65
2021/10/07 07:27:26;;;;;;;21.55;14.95;;;14.60;93.60;;;;;;5007789;28;20369;-64
2021/10/07 07:29:51;;;;;;;22.20;14.40;;;14.60;93.60;;;;;;5006498;28;20030;-64
2021/10/07 07:32:17;;;;;;;23.25;15.40;;;14.50;93.60;;;;;;5026662;28;20633;-62
2021/10/07 07:34:43;;;;;;;23.98;16.00;;;14.60;93.60;;;;;;5033396;28;20034;-63
2021/10/07 07:37:08;;;;;;;25.05;15.73;;;14.50;93.50;;;;;;5033840;28;20485;-63
2021/10/07 07:39:34;;;;;;;23.27;15.48;;;14.60;93.60;;;;;;5033578;28;20029;-65
2021/10/07 07:42:00;;;;;;;21.95;15.05;;;14.60;93.60;;;;;;5033624;28;20034;-66
2021/10/07 07:44:26;;;;;;;22.73;15.20;;;14.60;93.60;;;;;;5033761;28;20025;-63
2021/10/07 07:46:52;;;;;;;24.15;14.73;;;14.60;93.70;;;;;;5033556;28;20033;-63
2021/10/07 07:49:17;;;;;;;23.42;15.70;;;14.60;93.80;;;;;;5033283;28;20072;-63
2021/10/07 07:51:43;;;;;;;22.20;15.95;;;14.60;93.70;;;;;;5033449;28;20021;-63
2021/10/07 07:54:09;;;;;;;20.52;14.00;;;14.70;93.70;;;;;;5033558;28;20045;-64
2021/10/07 07:56:35;;;;;;;22.88;15.65;;;14.70;93.80;;;;;;5033426;28;20021;-64
2021/10/07 07:59:00;;;;;;;23.42;15.63;;;14.70;93.70;;;;;;5033248;28;20099;-63
2021/10/07 08:01:26;;;;;;;22.48;15.23;;;14.70;93.80;;;;;;5033423;28;20294;-63
2021/10/07 08:03:52;;;;;;;22.50;14.57;;;14.70;93.80;;;;;;5015394;28;20508;-63
2021/10/07 08:06:17;;;;;;;23.80;15.57;;;14.70;93.70;;;;;;5033222;28;20503;-63
2021/10/07 08:08:43;;;;;;;22.35;15.65;;;14.70;93.80;;;;;;5015196;28;20025;-63
2021/10/07 08:11:09;;;;;;;21.00;14.77;;;14.70;93.80;;;;;;5033090;28;20232;-63
2021/10/07 08:13:34;;;;;;;23.20;15.95;;;14.70;93.80;;;;;;5032596;28;20036;-63
2021/10/07 08:16:00;;;;;;;22.05;15.60;;;14.70;93.80;;;;;;5032969;28;20032;-63
2021/10/07 08:18:26;;;;;;;23.02;16.27;;;14.70;94.00;;;;;;5032660;28;20030;-66
2021/10/07 08:20:53;;;;;;;23.25;16.15;;;14.70;93.80;;;;;;5032968;28;20102;-64
2021/10/07 08:23:24;;;;;;;21.98;15.52;;;14.70;93.80;;;;;;5032907;28;20104;-63
2021/10/07 08:25:50;;;;;;;23.52;16.13;;;14.70;93.90;;;;;;5033025;28;20030;-65
2021/10/07 08:28:16;;;;;;;21.63;15.40;;;14.70;93.80;;;;;;5032749;28;20499;-63
2021/10/07 08:30:41;;;;;;;20.80;14.77;;;14.70;93.90;;;;;;5032863;28;20036;-63
2021/10/07 08:33:07;;;;;;;23.27;16.20;;;14.70;93.90;;;;;;5032567;28;20022;-63
2021/10/07 08:35:33;;;;;;;21.70;15.00;;;14.70;93.80;;;;;;5032755;28;20037;-66
2021/10/07 08:37:59;;;;;;;22.48;15.70;;;14.70;93.80;;;;;;5032534;28;20025;-63
2021/10/07 08:40:24;;;;;;;24.63;15.63;;;14.70;93.80;;;;;;5032531;28;20025;-64
2021/10/07 08:42:50;;;;;;;22.65;15.73;;;14.80;94.00;;;;;;5032682;28;20026;-63
2021/10/07 08:45:16;;;;;;;23.00;14.98;;;14.70;93.90;;;;;;5032602;28;20036;-63
2021/10/07 08:47:44;;;;;;;24.23;15.35;;;14.70;93.90;;;;;;5014732;28;20021;-63
2021/10/07 08:50:12;;;;;;;23.30;16.35;;;14.80;93.90;;;;;;5032152;28;20112;-64
2021/10/07 08:52:38;;;;;;;21.70;14.95;;;14.70;93.80;;;;;;5032336;28;20168;-63
2021/10/07 08:55:05;;;;;;;23.88;16.65;;;14.70;93.90;;;;;;5032406;28;20049;-64
2021/10/07 08:57:30;;;;;;;21.58;15.10;;;14.70;93.80;;;;;;5032271;28;20028;-64
2021/10/07 08:59:56;;;;;;;22.83;15.48;;;14.70;93.80;;;;;;5032047;28;20021;-63
2021/10/07 09:02:30;;;;;;;25.60;15.98;;;14.70;93.90;;;;;;5032021;28;20111;-63
2021/10/07 09:05:06;;;;;;;25.17;16.40;;;14.80;94.00;;;;;;5032254;28;20053;-63
2021/10/07 09:07:32;;;;;;;25.05;16.55;;;14.80;93.80;;;;;;5014517;28;20026;-63
2021/10/07 09:09:57;;;;;;;27.77;16.55;;;14.80;93.80;;;;;;5014113;28;20017;-63
2021/10/07 09:12:23;;;;;;;22.77;15.45;;;14.80;93.80;;;;;;5032020;28;20101;-64
2021/10/07 09:14:51;;;;;;;24.90;15.75;;;14.80;93.90;;;;;;5014226;28;20046;-63
2021/10/07 09:17:19;;;;;;;24.02;15.20;;;14.80;93.80;;;;;;5031872;28;20472;-64
2021/10/07 09:19:46;;;;;;;25.02;16.38;;;14.80;93.80;;;;;;5031569;28;20025;-66
2021/10/07 09:22:34;;;;;;;23.08;16.23;;;14.80;93.80;;;;;;5032005;28;20097;-63
2021/10/07 09:25:02;;;;;;;24.30;15.50;;;14.80;93.70;;;;;;5013950;28;20115;-64
2021/10/07 09:27:33;;;;;;;24.50;15.63;;;14.80;93.70;;;;;;5013904;28;20485;-64
2021/10/07 09:30:11;;;;;;;25.10;16.45;;;14.80;93.70;;;;;;5031483;28;20067;-66
2021/10/07 09:32:41;;;;;;;23.92;16.17;;;14.80;93.70;;;;;;5031580;28;20112;-63
2021/10/07 09:35:08;;;;;;;22.80;15.82;;;14.80;93.70;;;;;;5031804;28;20087;-62
2021/10/07 09:37:41;;;;;;;24.05;15.98;;;14.80;93.70;;;;;;5031330;28;20373;-63
2021/10/07 09:40:09;;;;;;;21.45;15.23;;;14.80;93.70;;;;;;5031300;28;20025;-63
2021/10/07 09:42:38;;;;;;;24.30;15.68;;;14.80;93.70;;;;;;5014034;28;20079;-63
2021/10/07 09:45:08;;;;;;;21.65;15.10;;;14.80;93.80;;;;;;5031536;28;20037;-65
2021/10/07 09:47:36;;;;;;;24.27;15.93;;;14.80;93.70;;;;;;5031498;28;20025;-64
2021/10/07 09:50:12;;;;;;;19.92;14.50;;;14.80;93.60;;;;;;5013419;28;20021;-63
2021/10/07 09:52:42;;;;;;;20.35;14.77;;;14.80;93.60;;;;;;5031400;28;20028;-63
2021/10/07 09:55:20;;;;;;;23.08;15.23;;;14.80;93.70;;;;;;5030992;28;20060;-65
2021/10/07 09:58:08;;;;;;;22.70;15.35;;;14.80;93.70;;;;;;5031347;28;20025;-63
2021/10/07 10:00:36;;;;;;;22.00;14.93;;;14.90;93.70;;;;;;5031064;28;20485;-63
2021/10/07 10:03:06;;;;;;;23.75;15.68;;;14.80;93.70;;;;;;5031233;28;20374;-63
2021/10/07 10:05:35;;;;;;;20.23;14.20;;;14.80;93.70;;;;;;5031414;28;20516;-63
2021/10/07 10:08:03;;;;;;;21.55;15.75;;;14.90;93.70;;;;;;5031217;28;20420;-65
2021/10/07 10:10:29;;;;;;;21.52;14.98;;;14.80;93.60;;;;;;5031153;28;20040;-64
2021/10/07 10:12:55;;;;;;;21.27;14.00;;;14.90;93.70;;;;;;5013338;28;20021;-66
2021/10/07 10:15:21;;;;;;;21.02;15.05;;;14.80;93.60;;;;;;5031290;28;20396;-66
2021/10/07 10:17:48;;;;;;;21.02;14.93;;;14.80;93.60;;;;;;5031143;28;20033;-63
2021/10/07 10:20:21;;;;;;;20.90;14.93;;;14.90;93.60;;;;;;5031015;28;20026;-64
2021/10/07 10:22:54;;;;;;;21.05;14.38;;;14.90;93.60;;;;;;5031204;28;20083;-65
2021/10/07 10:25:20;;;;;;;21.40;14.52;;;14.90;93.50;;;;;;5031208;28;20064;-64
2021/10/07 10:28:07;;;;;;;20.08;14.05;;;14.90;93.60;;;;;;5031023;28;20559;-65
2021/10/07 10:30:45;;;;;;;21.83;14.10;;;14.90;93.60;;;;;;5016922;28;20022;-63
2021/10/07 10:33:32;;;;;;;20.13;14.15;;;14.90;93.50;;;;;;5011224;28;20022;-62
2021/10/07 10:35:58;;;;;;;21.55;14.45;;;14.80;93.50;;;;;;5013279;28;20071;-66
2021/10/07 10:38:29;;;;;;;21.52;15.23;;;14.80;94.00;;;;;;5014639;28;20037;-62
2021/10/07 10:41:17;;;;;;;24.92;15.38;;;14.80;93.80;;;;;;5015071;28;20143;-66
2021/10/07 10:43:43;;;;;;;22.20;14.95;;;14.80;93.60;;;;;;5014373;28;20037;-64
2021/10/07 10:46:10;;;;;;;22.23;14.63;;;14.90;93.60;;;;;;5014939;28;20018;-67
2021/10/07 10:48:42;;;;;;;20.80;14.82;;;14.90;93.60;;;;;;5014458;28;20056;-64
2021/10/07 10:51:15;;;;;;;20.83;13.95;;;14.90;93.60;;;;;;5014887;28;20041;-65
2021/10/07 10:53:57;;;;;;;23.08;14.48;;;14.90;93.60;;;;;;5014692;28;20025;-66
2021/10/07 10:56:22;;;;;;;21.50;14.13;;;14.90;93.50;;;;;;5014862;28;20037;-63
2021/10/07 10:59:19;;;;;;;20.17;13.80;;;14.80;93.50;;;;;;4996455;28;20033;-63
2021/10/07 11:01:45;;;;;;;19.75;14.18;;;14.90;93.60;;;;;;5014671;28;20026;-64
2021/10/07 11:04:11;;;;;;;19.60;13.35;;;14.90;93.50;;;;;;5014559;28;20109;-64
2021/10/07 11:07:14;;;;;;;23.05;14.27;;;14.90;93.50;;;;;;5014689;28;20029;-63
2021/10/07 11:09:57;;;;;;;18.15;12.50;;;14.90;93.50;;;;;;5014309;28;20116;-64
2021/10/07 11:12:24;;;;;;;20.95;14.07;;;14.90;93.60;;;;;;5014530;28;20440;-64
2021/10/07 11:14:50;;;;;;;20.60;13.77;;;14.90;93.50;;;;;;5014624;28;20021;-64
2021/10/07 11:17:18;;;;;;;21.38;14.82;;;14.90;93.50;;;;;;5014377;28;20033;-65
2021/10/07 11:19:45;;;;;;;24.13;13.73;;;14.90;93.50;;;;;;5013779;28;20022;-65
2021/10/07 11:22:12;;;;;;;19.48;14.00;;;14.90;93.50;;;;;;4996589;28;20393;-62
2021/10/07 11:24:51;;;;;;;20.08;13.73;;;14.90;93.50;;;;;;5014181;28;20490;-62
2021/10/07 11:27:35;;;;;;;22.50;13.35;;;14.90;93.30;;;;;;4996479;28;20516;-63
2021/10/07 11:30:03;;;;;;;20.98;14.43;;;14.90;93.20;;;;;;5013373;28;20497;-63
2021/10/07 11:32:30;;;;;;;18.35;13.57;;;14.90;93.30;;;;;;4996421;28;20113;-64
2021/10/07 11:35:08;;;;;;;19.45;12.88;;;15.00;93.10;;;;;;5005633;28;20122;-62
2021/10/07 11:38:05;;;;;;;16.83;11.77;;;15.00;93.10;;;;;;5021050;28;20436;-62
2021/10/07 11:40:32;;;;;;;17.88;12.43;;;15.00;93.20;;;;;;5158681;23;20085;-64
2021/10/07 11:43:02;;;;;;;33.88;13.13;;;15.00;93.70;;;;;;5013760;28;20485;-65
2021/10/07 11:45:31;;;;;;;34.95;13.40;;;15.00;93.10;;;;;;5013437;28;20508;-66
2021/10/07 11:47:57;;;;;;;30.40;13.45;;;15.00;93.20;;;;;;5027777;28;20030;-66
2021/10/07 11:50:24;;;;;;;25.10;13.20;;;15.00;93.20;;;;;;5013327;28;20041;-65
2021/10/07 11:52:54;;;;;;;27.08;12.15;;;15.00;93.60;;;;;;5013772;28;20032;-66
2021/10/07 11:55:21;;;;;;;25.17;13.02;;;15.00;93.70;;;;;;5013574;28;20026;-66
2021/10/07 11:57:52;;;;;;;20.83;11.75;;;15.00;93.70;;;;;;5013541;28;20370;-66
2021/10/07 12:00:51;;;;;;;22.40;12.00;;;15.10;93.60;;;;;;5013248;28;20462;-66
2021/10/07 12:03:24;;;;;;;20.48;11.68;;;15.00;93.40;;;;;;4980122;28;20033;-64
2021/10/07 12:05:59;;;;;;;19.38;11.13;;;15.10;94.00;;;;;;5012681;28;20521;-66
2021/10/07 12:08:27;;;;;;;41.90;12.02;;;15.10;92.80;;;;;;5012789;28;20034;-66
2021/10/07 12:11:00;;;;;;;39.30;12.25;;;15.20;92.40;;;;;;5012486;28;20033;-66
2021/10/07 12:13:29;;;;;;;26.17;12.07;;;15.30;92.70;;;;;;5011583;28;20026;-66
2021/10/07 12:15:56;;;;;;;24.50;11.23;;;15.20;93.00;;;;;;5019735;28;20017;-66
2021/10/07 12:18:25;;;;;;;26.83;11.00;;;15.20;92.70;;;;;;5011583;28;20058;-66
2021/10/07 12:21:15;;;;;;;26.60;11.80;;;15.20;93.40;;;;;;5009707;28;20014;-66
2021/10/07 12:23:56;;;;;;;25.85;11.50;;;15.10;93.50;;;;;;5011490;28;20022;-65
2021/10/07 12:26:31;;;;;;;19.33;10.30;;;15.10;94.00;;;;;;5010083;28;20026;-66
2021/10/07 12:28:58;;;;;;;26.73;11.23;;;15.10;93.60;;;;;;5005166;28;20026;-66
2021/10/07 12:31:27;;;;;;;25.75;11.68;;;15.10;94.10;;;;;;5009797;28;20104;-66
2021/10/07 12:33:59;;;;;;;25.38;10.77;;;15.10;93.70;;;;;;5009589;28;20104;-67
2021/10/07 12:36:36;;;;;;;30.23;11.23;;;15.10;93.40;;;;;;5011322;28;20025;-66
2021/10/07 12:39:04;;;;;;;23.40;10.70;;;15.10;92.90;;;;;;5007403;28;20034;-64